createdAt,value
2017-10-30T00:00:48.786Z,6.97
2017-10-30T00:01:49.490Z,7.00
2017-10-30T00:02:50.197Z,6.92
2017-10-30T00:03:50.914Z,6.99
2017-10-30T00:04:51.619Z,6.95
2017-10-30T00:05:52.324Z,6.97
2017-10-30T00:06:53.030Z,6.99
2017-10-30T00:07:53.734Z,6.85
2017-10-30T00:08:54.440Z,6.95
2017-10-30T00:09:55.156Z,6.88
2017-10-30T00:10:55.875Z,6.97
2017-10-30T00:11:56.580Z,6.97
2017-10-30T00:12:57.287Z,6.97
2017-10-30T00:13:57.993Z,6.88
2017-10-30T00:14:58.700Z,6.87
2017-10-30T00:15:59.410Z,6.97
2017-10-30T00:17:00.112Z,6.88
2017-10-30T00:18:00.818Z,6.88
2017-10-30T00:19:01.525Z,6.85
2017-10-30T00:20:02.231Z,6.85
2017-10-30T00:21:02.937Z,6.84
2017-10-30T00:22:03.650Z,6.85
2017-10-30T00:23:04.366Z,6.95
2017-10-30T00:24:05.078Z,6.84
2017-10-30T00:25:05.799Z,6.87
2017-10-30T00:26:06.517Z,6.87
2017-10-30T00:27:07.222Z,6.84
2017-10-30T00:28:07.926Z,6.87
2017-10-30T00:29:08.642Z,6.96
2017-10-30T00:30:09.348Z,6.93
2017-10-30T00:31:10.053Z,6.87
2017-10-30T00:32:10.760Z,6.84
2017-10-30T00:33:11.481Z,6.96
2017-10-30T00:34:12.194Z,6.93
2017-10-30T00:35:12.891Z,6.84
2017-10-30T00:36:13.597Z,6.93
2017-10-30T00:37:14.302Z,6.85
2017-10-30T00:38:15.007Z,6.97
2017-10-30T00:39:15.726Z,6.87
2017-10-30T00:40:16.432Z,6.82
2017-10-30T00:41:17.145Z,6.87
2017-10-30T00:42:17.849Z,6.88
2017-10-30T00:43:18.556Z,6.92
2017-10-30T00:44:19.262Z,6.87
2017-10-30T00:45:19.983Z,6.87
2017-10-30T00:46:20.699Z,6.92
2017-10-30T00:47:21.419Z,6.92
2017-10-30T00:48:22.137Z,6.92
2017-10-30T00:49:22.843Z,6.92
2017-10-30T00:50:23.548Z,6.87
2017-10-30T00:51:24.254Z,6.82
2017-10-30T00:52:24.959Z,6.87
2017-10-30T00:53:25.677Z,6.81
2017-10-30T00:54:26.381Z,6.87
2017-10-30T00:55:27.086Z,6.85
2017-10-30T00:56:27.791Z,6.87
2017-10-30T00:57:28.497Z,6.81
2017-10-30T00:58:29.203Z,6.87
2017-10-30T00:59:29.909Z,6.95
2017-10-30T01:00:30.613Z,6.99
2017-10-30T01:01:31.318Z,6.96
2017-10-30T01:02:32.023Z,7.05
2017-10-30T01:03:32.730Z,7.02
2017-10-30T01:04:33.437Z,7.15
2017-10-30T01:05:34.143Z,7.05
2017-10-30T01:06:34.861Z,7.10
2017-10-30T01:07:35.567Z,7.07
2017-10-30T01:08:36.285Z,7.15
2017-10-30T01:09:36.989Z,7.18
2017-10-30T01:10:37.693Z,7.28
2017-10-30T01:11:38.398Z,7.23
2017-10-30T01:12:39.104Z,7.20
2017-10-30T01:13:39.811Z,7.17
2017-10-30T01:14:40.528Z,7.21
2017-10-30T01:15:41.233Z,7.21
2017-10-30T01:16:41.940Z,7.20
2017-10-30T01:17:42.646Z,7.21
2017-10-30T01:18:43.352Z,7.20
2017-10-30T01:19:44.060Z,7.18
2017-10-30T01:20:44.766Z,7.24
2017-10-30T01:21:45.471Z,7.18
2017-10-30T01:22:46.183Z,7.31
2017-10-30T01:23:46.897Z,7.32
2017-10-30T01:24:47.608Z,7.35
2017-10-30T01:25:48.325Z,7.32
2017-10-30T01:26:49.027Z,7.35
2017-10-30T01:27:49.732Z,7.31
2017-10-30T01:28:50.438Z,7.31
2017-10-30T01:29:51.143Z,7.25
2017-10-30T01:30:51.851Z,7.21
2017-10-30T01:31:52.553Z,7.21
2017-10-30T01:32:53.260Z,7.15
2017-10-30T01:33:53.973Z,7.20
2017-10-30T01:34:54.692Z,7.05
2017-10-30T01:35:55.398Z,7.17
2017-10-30T01:36:56.115Z,7.17
2017-10-30T01:37:56.820Z,7.11
2017-10-30T01:38:57.525Z,7.18
2017-10-30T01:39:58.247Z,7.07
2017-10-30T01:40:58.949Z,7.03
2017-10-30T01:41:59.658Z,6.96
2017-10-30T01:43:00.373Z,6.93
2017-10-30T01:44:01.078Z,6.97
2017-10-30T01:45:01.783Z,6.97
2017-10-30T01:46:02.489Z,6.97
2017-10-30T01:47:03.193Z,6.96
2017-10-30T01:48:03.909Z,6.95
2017-10-30T01:49:04.626Z,6.84
2017-10-30T01:50:05.332Z,6.85
2017-10-30T01:51:06.038Z,6.84
2017-10-30T01:52:06.742Z,6.85
2017-10-30T01:53:07.472Z,6.82
2017-10-30T01:54:08.180Z,6.87
2017-10-30T01:55:08.886Z,6.85
2017-10-30T01:56:09.592Z,6.79
2017-10-30T01:57:10.298Z,6.79
2017-10-30T01:58:11.004Z,6.74
2017-10-30T01:59:11.721Z,6.75
2017-10-30T02:00:12.426Z,6.70
2017-10-30T02:01:13.129Z,6.75
2017-10-30T02:02:13.835Z,6.69
2017-10-30T02:03:14.541Z,6.69
2017-10-30T02:04:15.250Z,6.67
2017-10-30T02:05:15.963Z,6.64
2017-10-30T02:06:16.669Z,6.69
2017-10-30T02:07:17.373Z,6.72
2017-10-30T02:08:18.080Z,6.66
2017-10-30T02:09:18.783Z,6.70
2017-10-30T02:10:19.500Z,6.72
2017-10-30T02:11:20.207Z,6.67
2017-10-30T02:12:20.925Z,6.70
2017-10-30T02:13:21.646Z,6.69
2017-10-30T02:14:22.351Z,6.70
2017-10-30T02:15:23.066Z,6.75
2017-10-30T02:16:23.772Z,6.72
2017-10-30T02:17:24.477Z,6.77
2017-10-30T02:18:25.181Z,6.75
2017-10-30T02:19:25.889Z,6.78
2017-10-30T02:20:26.606Z,6.82
2017-10-30T02:21:27.313Z,6.81
2017-10-30T02:22:28.018Z,6.87
2017-10-30T02:23:28.725Z,6.88
2017-10-30T02:24:29.431Z,6.92
2017-10-30T02:25:30.136Z,6.87
2017-10-30T02:26:30.855Z,6.82
2017-10-30T02:27:31.561Z,6.85
2017-10-30T02:28:32.264Z,6.87
2017-10-30T02:29:32.983Z,6.87
2017-10-30T02:30:33.691Z,6.81
2017-10-30T02:31:34.399Z,6.82
2017-10-30T02:32:35.110Z,6.81
2017-10-30T02:33:35.813Z,6.77
2017-10-30T02:34:36.519Z,6.84
2017-10-30T02:35:37.228Z,6.75
2017-10-30T02:36:37.943Z,6.81
2017-10-30T02:37:38.660Z,6.85
2017-10-30T02:38:39.380Z,6.75
2017-10-30T02:39:40.089Z,6.70
2017-10-30T02:40:40.806Z,6.74
2017-10-30T02:41:41.509Z,6.77
2017-10-30T02:42:42.214Z,6.66
2017-10-30T02:43:42.926Z,6.75
2017-10-30T02:44:43.628Z,6.74
2017-10-30T02:45:44.334Z,6.72
2017-10-30T02:46:45.040Z,6.67
2017-10-30T02:47:45.747Z,6.70
2017-10-30T02:48:46.449Z,6.64
2017-10-30T02:49:47.159Z,6.70
2017-10-30T02:50:47.872Z,6.64
2017-10-30T02:51:48.576Z,6.69
2017-10-30T02:52:49.281Z,6.66
2017-10-30T02:53:49.985Z,6.59
2017-10-30T02:54:50.690Z,6.56
2017-10-30T02:55:51.395Z,6.60
2017-10-30T02:56:52.113Z,6.56
2017-10-30T02:57:52.817Z,6.56
2017-10-30T02:58:53.533Z,6.60
2017-10-30T02:59:54.244Z,6.51
2017-10-30T03:00:54.945Z,6.49
2017-10-30T03:01:55.649Z,6.44
2017-10-30T03:02:56.355Z,6.39
2017-10-30T03:03:57.061Z,6.46
2017-10-30T03:04:57.767Z,6.35
2017-10-30T03:05:58.485Z,6.45
2017-10-30T03:06:59.193Z,6.31
2017-10-30T03:07:59.895Z,6.30
2017-10-30T03:09:00.602Z,6.24
2017-10-30T03:10:01.308Z,6.16
2017-10-30T03:11:02.011Z,6.27
2017-10-30T03:12:02.717Z,6.19
2017-10-30T03:13:03.435Z,6.12
2017-10-30T03:14:04.156Z,6.20
2017-10-30T03:15:04.868Z,6.24
2017-10-30T03:16:05.574Z,6.22
2017-10-30T03:17:06.279Z,6.14
2017-10-30T03:18:06.989Z,6.12
2017-10-30T03:19:07.690Z,6.16
2017-10-30T03:20:08.396Z,6.12
2017-10-30T03:21:09.097Z,6.19
2017-10-30T03:22:09.802Z,6.20
2017-10-30T03:23:10.508Z,6.20
2017-10-30T03:24:11.226Z,6.24
2017-10-30T03:25:11.932Z,6.22
2017-10-30T03:26:12.638Z,6.24
2017-10-30T03:27:13.357Z,6.28
2017-10-30T03:28:14.075Z,6.35
2017-10-30T03:29:14.781Z,6.36
2017-10-30T03:30:15.487Z,6.46
2017-10-30T03:31:16.194Z,6.38
2017-10-30T03:32:16.900Z,6.39
2017-10-30T03:33:17.606Z,6.42
2017-10-30T03:34:18.317Z,6.39
2017-10-30T03:35:19.020Z,6.45
2017-10-30T03:36:19.741Z,6.36
2017-10-30T03:37:20.441Z,6.41
2017-10-30T03:38:21.145Z,6.39
2017-10-30T03:39:21.861Z,6.41
2017-10-30T03:40:22.578Z,6.41
2017-10-30T03:41:23.290Z,6.46
2017-10-30T03:42:23.989Z,6.46
2017-10-30T03:43:24.694Z,6.38
2017-10-30T03:44:25.397Z,6.41
2017-10-30T03:45:26.103Z,6.36
2017-10-30T03:46:26.826Z,6.39
2017-10-30T03:47:27.528Z,6.51
2017-10-30T03:48:28.246Z,6.54
2017-10-30T03:49:28.964Z,6.57
2017-10-30T03:50:29.682Z,6.48
2017-10-30T03:51:30.388Z,6.52
2017-10-30T03:52:31.094Z,6.56
2017-10-30T03:53:31.811Z,6.56
2017-10-30T03:54:32.518Z,6.56
2017-10-30T03:55:33.224Z,6.49
2017-10-30T03:56:33.931Z,6.59
2017-10-30T03:57:34.649Z,6.56
2017-10-30T03:58:35.353Z,6.62
2017-10-30T03:59:36.056Z,6.69
2017-10-30T04:00:36.763Z,6.70
2017-10-30T04:01:37.468Z,6.66
2017-10-30T04:02:38.174Z,6.66
2017-10-30T04:03:38.881Z,6.69
2017-10-30T04:04:39.586Z,6.64
2017-10-30T04:05:40.291Z,6.67
2017-10-30T04:06:40.997Z,6.64
2017-10-30T04:07:41.715Z,6.63
2017-10-30T04:08:42.422Z,6.59
2017-10-30T04:09:43.127Z,6.64
2017-10-30T04:10:43.832Z,6.66
2017-10-30T04:11:44.537Z,6.63
2017-10-30T04:12:45.243Z,6.64
2017-10-30T04:13:45.947Z,6.70
2017-10-30T04:14:46.652Z,6.66
2017-10-30T04:15:47.356Z,6.54
2017-10-30T04:16:48.063Z,6.62
2017-10-30T04:17:48.769Z,6.56
2017-10-30T04:18:49.476Z,6.54
2017-10-30T04:19:50.187Z,6.52
2017-10-30T04:20:50.886Z,6.60
2017-10-30T04:21:51.595Z,6.46
2017-10-30T04:22:52.300Z,6.46
2017-10-30T04:23:53.005Z,6.48
2017-10-30T04:24:53.710Z,6.49
2017-10-30T04:25:54.416Z,6.44
2017-10-30T04:26:55.124Z,6.46
2017-10-30T04:27:55.829Z,6.39
2017-10-30T04:28:56.536Z,6.45
2017-10-30T04:29:57.241Z,6.46
2017-10-30T04:30:57.946Z,6.52
2017-10-30T04:31:58.654Z,6.45
2017-10-30T04:32:59.360Z,6.44
2017-10-30T04:34:00.066Z,6.38
2017-10-30T04:35:00.773Z,6.45
2017-10-30T04:36:01.477Z,6.36
2017-10-30T04:37:02.184Z,6.44
2017-10-30T04:38:02.889Z,6.48
2017-10-30T04:39:03.605Z,6.45
2017-10-30T04:40:04.321Z,6.46
2017-10-30T04:41:05.043Z,6.48
2017-10-30T04:42:05.758Z,6.48
2017-10-30T04:43:06.464Z,6.52
2017-10-30T04:44:07.172Z,6.52
2017-10-30T04:45:07.877Z,6.49
2017-10-30T04:46:08.592Z,6.59
2017-10-30T04:47:09.308Z,6.59
2017-10-30T04:48:10.018Z,6.56
2017-10-30T04:49:10.719Z,6.59
2017-10-30T04:50:11.426Z,6.60
2017-10-30T04:51:12.143Z,6.54
2017-10-30T04:52:12.848Z,6.57
2017-10-30T04:53:13.552Z,6.59
2017-10-30T04:54:14.259Z,6.60
2017-10-30T04:55:14.979Z,6.63
2017-10-30T04:56:15.700Z,6.52
2017-10-30T04:57:16.414Z,6.56
2017-10-30T04:58:17.123Z,6.57
2017-10-30T04:59:17.836Z,6.56
2017-10-30T05:00:18.549Z,6.56
2017-10-30T05:01:19.253Z,6.57
2017-10-30T05:02:19.968Z,6.63
2017-10-30T05:03:20.685Z,6.51
2017-10-30T05:04:21.391Z,6.56
2017-10-30T05:05:22.094Z,6.46
2017-10-30T05:06:22.813Z,6.41
2017-10-30T05:07:23.519Z,6.39
2017-10-30T05:08:24.224Z,6.38
2017-10-30T05:09:24.930Z,6.38
2017-10-30T05:10:25.637Z,6.33
2017-10-30T05:11:26.342Z,6.38
2017-10-30T05:12:27.057Z,6.35
2017-10-30T05:13:27.763Z,6.36
2017-10-30T05:14:28.468Z,6.28
2017-10-30T05:15:29.177Z,6.35
2017-10-30T05:16:29.878Z,6.28
2017-10-30T05:17:30.583Z,6.24
2017-10-30T05:18:31.288Z,6.27
2017-10-30T05:19:31.993Z,6.16
2017-10-30T05:20:32.699Z,6.22
2017-10-30T05:21:33.404Z,6.20
2017-10-30T05:22:34.119Z,6.22
2017-10-30T05:23:34.839Z,6.17
2017-10-30T05:24:35.574Z,6.19
2017-10-30T05:25:36.251Z,6.33
2017-10-30T05:26:36.968Z,6.38
2017-10-30T05:27:37.684Z,6.42
2017-10-30T05:28:38.404Z,6.33
2017-10-30T05:29:39.111Z,6.41
2017-10-30T05:30:39.820Z,6.38
2017-10-30T05:31:40.535Z,6.42
2017-10-30T05:32:41.245Z,6.42
2017-10-30T05:33:41.945Z,6.35
2017-10-30T05:34:42.694Z,6.44
2017-10-30T05:35:43.366Z,6.41
2017-10-30T05:36:44.072Z,6.41
2017-10-30T05:37:44.778Z,6.36
2017-10-30T05:38:45.479Z,6.44
2017-10-30T05:39:46.196Z,6.39
2017-10-30T05:40:46.900Z,6.57
2017-10-30T05:41:47.607Z,6.51
2017-10-30T05:42:48.314Z,6.56
2017-10-30T05:43:49.020Z,6.52
2017-10-30T05:44:49.727Z,6.57
2017-10-30T05:45:50.431Z,6.60
2017-10-30T05:46:51.135Z,6.56
2017-10-30T05:47:51.839Z,6.57
2017-10-30T05:48:52.543Z,6.48
2017-10-30T05:49:53.261Z,6.62
2017-10-30T05:50:53.967Z,6.59
2017-10-30T05:51:54.675Z,6.52
2017-10-30T05:52:55.380Z,6.54
2017-10-30T05:53:56.088Z,6.63
2017-10-30T05:54:56.804Z,6.67
2017-10-30T05:55:57.510Z,6.57
2017-10-30T05:56:58.216Z,6.62
2017-10-30T05:57:58.923Z,6.66
2017-10-30T05:58:59.632Z,6.64
2017-10-30T06:00:00.336Z,6.59
2017-10-30T06:01:01.043Z,6.63
2017-10-30T06:02:01.749Z,6.57
2017-10-30T06:03:02.469Z,6.52
2017-10-30T06:04:03.177Z,6.66
2017-10-30T06:05:03.886Z,6.54
2017-10-30T06:06:04.592Z,6.52
2017-10-30T06:07:05.298Z,6.57
2017-10-30T06:08:06.003Z,6.52
2017-10-30T06:09:06.709Z,6.48
2017-10-30T06:10:07.415Z,6.52
2017-10-30T06:11:08.121Z,6.44
2017-10-30T06:12:08.830Z,6.45
2017-10-30T06:13:09.536Z,6.42
2017-10-30T06:14:10.244Z,6.36
2017-10-30T06:15:10.951Z,6.38
2017-10-30T06:16:11.658Z,6.33
2017-10-30T06:17:12.363Z,6.41
2017-10-30T06:18:13.070Z,6.41
2017-10-30T06:19:13.778Z,6.35
2017-10-30T06:20:14.485Z,6.41
2017-10-30T06:21:15.203Z,6.52
2017-10-30T06:22:15.898Z,6.52
2017-10-30T06:23:16.617Z,6.44
2017-10-30T06:24:17.323Z,6.56
2017-10-30T06:25:18.032Z,6.48
2017-10-30T06:26:18.746Z,6.57
2017-10-30T06:27:19.447Z,6.64
2017-10-30T06:28:20.155Z,6.66
2017-10-30T06:29:20.862Z,6.74
2017-10-30T06:30:21.572Z,6.75
2017-10-30T06:31:22.289Z,6.66
2017-10-30T06:32:23.008Z,6.70
2017-10-30T06:33:23.704Z,6.70
2017-10-30T06:34:24.411Z,6.69
2017-10-30T06:35:25.132Z,6.67
2017-10-30T06:36:25.842Z,6.72
2017-10-30T06:37:26.549Z,6.85
2017-10-30T06:38:27.258Z,6.81
2017-10-30T06:39:27.969Z,6.81
2017-10-30T06:40:28.675Z,6.88
2017-10-30T06:41:29.396Z,6.87
2017-10-30T06:42:30.102Z,6.85
2017-10-30T06:43:30.823Z,6.87
2017-10-30T06:44:31.544Z,6.92
2017-10-30T06:45:32.265Z,6.82
2017-10-30T06:46:32.972Z,6.84
2017-10-30T06:47:33.692Z,6.97
2017-10-30T06:48:34.399Z,6.87
2017-10-30T06:49:35.107Z,7.00
2017-10-30T06:50:35.815Z,6.85
2017-10-30T06:51:36.524Z,6.99
2017-10-30T06:52:37.232Z,6.99
2017-10-30T06:53:37.954Z,6.96
2017-10-30T06:54:38.664Z,7.07
2017-10-30T06:55:39.372Z,6.99
2017-10-30T06:56:40.080Z,6.99
2017-10-30T06:57:40.806Z,7.00
2017-10-30T06:58:41.512Z,6.96
2017-10-30T06:59:42.222Z,6.99
2017-10-30T07:00:42.949Z,7.00
2017-10-30T07:01:43.657Z,7.03
2017-10-30T07:02:44.366Z,7.03
2017-10-30T07:03:45.086Z,7.06
2017-10-30T07:04:45.797Z,7.06
2017-10-30T07:05:46.508Z,7.17
2017-10-30T07:06:47.219Z,7.11
2017-10-30T07:07:47.929Z,7.06
2017-10-30T07:08:48.642Z,7.14
2017-10-30T07:09:49.362Z,7.11
2017-10-30T07:10:50.072Z,7.15
2017-10-30T07:11:50.796Z,7.06
2017-10-30T07:12:51.508Z,7.23
2017-10-30T07:13:52.227Z,7.07
2017-10-30T07:14:52.947Z,7.14
2017-10-30T07:15:53.655Z,7.10
2017-10-30T07:16:54.378Z,7.17
2017-10-30T07:17:55.101Z,7.14
2017-10-30T07:18:55.811Z,7.20
2017-10-30T07:19:56.521Z,7.17
2017-10-30T07:20:57.232Z,7.13
2017-10-30T07:21:57.942Z,7.20
2017-10-30T07:22:58.653Z,7.18
2017-10-30T07:23:59.365Z,7.20
2017-10-30T07:25:00.076Z,7.23
2017-10-30T07:26:00.784Z,7.21
2017-10-30T07:27:01.495Z,7.36
2017-10-30T07:28:02.214Z,7.35
2017-10-30T07:29:02.940Z,7.39
2017-10-30T07:30:03.650Z,7.39
2017-10-30T07:31:04.360Z,7.36
2017-10-30T07:32:05.085Z,7.39
2017-10-30T07:33:05.806Z,7.38
2017-10-30T07:34:06.517Z,7.42
2017-10-30T07:35:07.230Z,7.39
2017-10-30T07:36:07.948Z,7.38
2017-10-30T07:37:08.659Z,7.47
2017-10-30T07:38:09.382Z,7.50
2017-10-30T07:39:10.094Z,7.47
2017-10-30T07:40:10.806Z,7.42
2017-10-30T07:41:11.517Z,7.53
2017-10-30T07:42:12.230Z,7.67
2017-10-30T07:43:12.942Z,7.63
2017-10-30T07:44:13.666Z,7.67
2017-10-30T07:45:14.390Z,7.75
2017-10-30T07:46:15.102Z,7.70
2017-10-30T07:47:15.814Z,7.70
2017-10-30T07:48:16.527Z,7.77
2017-10-30T07:49:17.237Z,7.85
2017-10-30T07:50:17.951Z,7.82
2017-10-30T07:51:18.677Z,7.82
2017-10-30T07:52:19.389Z,7.88
2017-10-30T07:53:20.101Z,7.90
2017-10-30T07:54:20.824Z,7.87
2017-10-30T07:55:21.536Z,7.91
2017-10-30T07:56:22.250Z,7.97
2017-10-30T07:57:22.964Z,8.06
2017-10-30T07:58:23.674Z,8.03
2017-10-30T07:59:24.385Z,8.01
2017-10-30T08:00:25.098Z,8.24
2017-10-30T08:01:25.812Z,8.60
2017-10-30T08:02:26.541Z,9.18
2017-10-30T08:03:27.267Z,9.82
2017-10-30T08:04:27.985Z,10.54
2017-10-30T08:05:28.704Z,11.35
2017-10-30T08:06:29.435Z,11.59
2017-10-30T08:07:30.162Z,11.81
2017-10-30T08:08:30.879Z,12.15
2017-10-30T08:09:31.599Z,12.45
2017-10-30T08:10:32.331Z,12.49
2017-10-30T08:11:33.049Z,12.17
2017-10-30T08:12:33.765Z,12.02
2017-10-30T08:13:34.482Z,11.83
2017-10-30T08:14:35.202Z,11.75
2017-10-30T08:15:35.920Z,11.41
2017-10-30T08:16:36.639Z,11.27
2017-10-30T08:17:37.354Z,11.12
2017-10-30T08:18:38.072Z,10.92
2017-10-30T08:19:38.802Z,10.67
2017-10-30T08:20:39.528Z,10.63
2017-10-30T08:21:40.246Z,10.44
2017-10-30T08:22:40.961Z,10.31
2017-10-30T08:23:41.678Z,10.30
2017-10-30T08:24:42.393Z,10.12
2017-10-30T08:25:43.109Z,9.99
2017-10-30T08:26:43.823Z,9.76
2017-10-30T08:27:44.552Z,9.74
2017-10-30T08:28:45.264Z,9.65
2017-10-30T08:29:45.988Z,9.55
2017-10-30T08:30:46.701Z,9.43
2017-10-30T08:31:47.417Z,9.34
2017-10-30T08:32:48.130Z,9.34
2017-10-30T08:33:48.839Z,9.29
2017-10-30T08:34:49.553Z,9.13
2017-10-30T08:35:50.281Z,9.13
2017-10-30T08:36:51.005Z,9.10
2017-10-30T08:37:51.721Z,8.97
2017-10-30T08:38:52.434Z,8.89
2017-10-30T08:39:53.152Z,8.89
2017-10-30T08:40:53.864Z,8.82
2017-10-30T08:41:54.588Z,8.88
2017-10-30T08:42:55.317Z,8.88
2017-10-30T08:43:56.031Z,8.67
2017-10-30T08:44:56.744Z,8.66
2017-10-30T08:45:57.470Z,8.63
2017-10-30T08:46:58.186Z,8.70
2017-10-30T08:47:58.898Z,8.74
2017-10-30T08:48:59.610Z,8.64
2017-10-30T08:50:00.334Z,8.67
2017-10-30T08:51:01.052Z,8.69
2017-10-30T08:52:01.777Z,8.74
2017-10-30T08:53:02.505Z,8.78
2017-10-30T08:54:03.231Z,8.81
2017-10-30T08:55:03.945Z,8.84
2017-10-30T08:56:04.672Z,9.00
2017-10-30T08:57:05.405Z,9.41
2017-10-30T08:58:06.119Z,9.86
2017-10-30T08:59:06.834Z,10.72
2017-10-30T09:00:07.551Z,11.70
2017-10-30T09:01:08.269Z,12.35
2017-10-30T09:02:08.991Z,13.33
2017-10-30T09:03:09.709Z,13.92
2017-10-30T09:04:10.429Z,14.15
2017-10-30T09:05:11.157Z,13.74
2017-10-30T09:06:11.878Z,13.78
2017-10-30T09:07:12.600Z,13.63
2017-10-30T09:08:13.322Z,13.68
2017-10-30T09:09:14.054Z,14.11
2017-10-30T09:10:14.777Z,14.84
2017-10-30T09:11:15.500Z,15.33
2017-10-30T09:12:16.224Z,15.55
2017-10-30T09:13:16.945Z,15.29
2017-10-30T09:14:17.678Z,14.82
2017-10-30T09:15:18.402Z,15.17
2017-10-30T09:16:19.122Z,14.54
2017-10-30T09:17:19.844Z,13.57
2017-10-30T09:18:20.567Z,13.35
2017-10-30T09:19:21.286Z,13.35
2017-10-30T09:20:22.004Z,13.01
2017-10-30T09:21:22.723Z,12.55
2017-10-30T09:22:23.445Z,12.22
2017-10-30T09:23:24.161Z,12.10
2017-10-30T09:24:24.881Z,11.99
2017-10-30T09:25:25.631Z,11.66
2017-10-30T09:26:26.329Z,11.55
2017-10-30T09:27:27.046Z,11.43
2017-10-30T09:28:27.763Z,11.35
2017-10-30T09:29:28.478Z,11.27
2017-10-30T09:30:29.198Z,11.18
2017-10-30T09:31:29.915Z,10.93
2017-10-30T09:32:30.646Z,10.84
2017-10-30T09:33:31.364Z,10.57
2017-10-30T09:34:32.080Z,10.49
2017-10-30T09:35:32.808Z,10.44
2017-10-30T09:36:33.536Z,10.44
2017-10-30T09:37:34.243Z,10.48
2017-10-30T09:38:34.961Z,10.54
2017-10-30T09:39:35.681Z,11.37
2017-10-30T09:40:36.401Z,12.22
2017-10-30T09:41:37.121Z,12.85
2017-10-30T09:42:37.841Z,13.47
2017-10-30T09:43:38.559Z,13.31
2017-10-30T09:44:39.281Z,13.15
2017-10-30T09:45:40.004Z,13.03
2017-10-30T09:46:40.722Z,13.31
2017-10-30T09:47:41.442Z,13.27
2017-10-30T09:48:42.162Z,13.19
2017-10-30T09:49:42.886Z,13.20
2017-10-30T09:50:43.603Z,13.12
2017-10-30T09:51:44.324Z,12.97
2017-10-30T09:52:45.046Z,12.47
2017-10-30T09:53:45.771Z,12.58
2017-10-30T09:54:46.487Z,12.61
2017-10-30T09:55:47.222Z,12.79
2017-10-30T09:56:47.944Z,12.85
2017-10-30T09:57:48.665Z,12.72
2017-10-30T09:58:49.396Z,13.00
2017-10-30T09:59:50.117Z,12.85
2017-10-30T10:00:50.838Z,13.25
2017-10-30T10:01:51.558Z,13.25
2017-10-30T10:02:52.281Z,13.31
2017-10-30T10:03:53.014Z,13.28
2017-10-30T10:04:53.732Z,13.47
2017-10-30T10:05:54.453Z,13.46
2017-10-30T10:06:55.171Z,13.57
2017-10-30T10:07:55.904Z,13.53
2017-10-30T10:08:56.635Z,13.37
2017-10-30T10:09:57.370Z,13.30
2017-10-30T10:10:58.089Z,13.03
2017-10-30T10:11:58.811Z,12.95
2017-10-30T10:12:59.540Z,12.94
2017-10-30T10:14:00.274Z,12.91
2017-10-30T10:15:00.993Z,12.86
2017-10-30T10:16:01.713Z,12.76
2017-10-30T10:17:02.447Z,12.57
2017-10-30T10:18:03.168Z,12.46
2017-10-30T10:19:03.888Z,12.25
2017-10-30T10:20:04.607Z,12.28
2017-10-30T10:21:05.327Z,12.18
2017-10-30T10:22:06.046Z,12.25
2017-10-30T10:23:06.765Z,12.53
2017-10-30T10:24:07.487Z,12.45
2017-10-30T10:25:08.218Z,12.54
2017-10-30T10:26:08.947Z,12.46
2017-10-30T10:27:09.667Z,12.47
2017-10-30T10:28:10.384Z,12.57
2017-10-30T10:29:11.106Z,12.62
2017-10-30T10:30:11.837Z,12.79
2017-10-30T10:31:12.568Z,13.00
2017-10-30T10:32:13.304Z,13.11
2017-10-30T10:33:14.017Z,13.15
2017-10-30T10:34:14.754Z,13.31
2017-10-30T10:35:15.468Z,13.42
2017-10-30T10:36:16.194Z,13.38
2017-10-30T10:37:16.909Z,13.23
2017-10-30T10:38:17.640Z,13.20
2017-10-30T10:39:18.358Z,13.25
2017-10-30T10:40:19.080Z,13.35
2017-10-30T10:41:19.801Z,13.65
2017-10-30T10:42:20.538Z,14.08
2017-10-30T10:43:21.267Z,14.78
2017-10-30T10:44:21.991Z,15.59
2017-10-30T10:45:22.715Z,16.42
2017-10-30T10:46:23.437Z,16.91
2017-10-30T10:47:24.162Z,17.31
2017-10-30T10:48:24.889Z,17.56
2017-10-30T10:49:25.614Z,18.01
2017-10-30T10:50:26.340Z,18.74
2017-10-30T10:51:27.079Z,19.02
2017-10-30T10:52:27.842Z,19.14
2017-10-30T10:53:28.533Z,19.39
2017-10-30T10:54:29.275Z,19.51
2017-10-30T10:55:30.003Z,19.44
2017-10-30T10:56:30.730Z,19.74
2017-10-30T10:57:31.460Z,20.52
2017-10-30T10:58:32.192Z,20.56
2017-10-30T10:59:32.936Z,20.37
2017-10-30T11:00:33.672Z,20.41
2017-10-30T11:01:34.406Z,19.94
2017-10-30T11:02:35.140Z,20.25
2017-10-30T11:03:35.872Z,20.37
2017-10-30T11:04:36.606Z,20.04
2017-10-30T11:05:37.339Z,20.25
2017-10-30T11:06:38.074Z,20.48
2017-10-30T11:07:38.812Z,21.09
2017-10-30T11:08:39.545Z,21.55
2017-10-30T11:09:40.279Z,21.30
2017-10-30T11:10:41.006Z,21.45
2017-10-30T11:11:41.737Z,20.58
2017-10-30T11:12:42.466Z,20.80
2017-10-30T11:13:43.196Z,21.32
2017-10-30T11:14:43.938Z,21.37
2017-10-30T11:15:44.671Z,21.33
2017-10-30T11:16:45.402Z,20.80
2017-10-30T11:17:46.129Z,20.72
2017-10-30T11:18:46.858Z,19.29
2017-10-30T11:19:47.587Z,19.30
2017-10-30T11:20:48.316Z,18.95
2017-10-30T11:21:49.045Z,19.15
2017-10-30T11:22:49.775Z,19.66
2017-10-30T11:23:50.507Z,19.81
2017-10-30T11:24:51.236Z,19.88
2017-10-30T11:25:51.964Z,19.41
2017-10-30T11:26:52.707Z,19.51
2017-10-30T11:27:53.434Z,19.49
2017-10-30T11:28:54.166Z,20.13
2017-10-30T11:29:54.896Z,19.77
2017-10-30T11:30:55.624Z,19.84
2017-10-30T11:31:56.352Z,19.99
2017-10-30T11:32:57.080Z,19.22
2017-10-30T11:33:57.808Z,18.62
2017-10-30T11:34:58.551Z,18.44
2017-10-30T11:35:59.294Z,18.31
2017-10-30T11:37:00.010Z,18.47
2017-10-30T11:38:00.751Z,18.47
2017-10-30T11:39:01.497Z,18.78
2017-10-30T11:40:02.220Z,18.11
2017-10-30T11:41:02.962Z,18.18
2017-10-30T11:42:03.696Z,18.99
2017-10-30T11:43:04.429Z,19.31
2017-10-30T11:44:05.158Z,19.07
2017-10-30T11:45:05.884Z,18.58
2017-10-30T11:46:06.615Z,18.26
2017-10-30T11:47:07.349Z,18.41
2017-10-30T11:48:08.079Z,18.89
2017-10-30T11:49:08.811Z,19.15
2017-10-30T11:50:09.539Z,19.08
2017-10-30T11:51:10.268Z,18.19
2017-10-30T11:52:10.996Z,17.79
2017-10-30T11:53:11.725Z,17.52
2017-10-30T11:54:12.467Z,17.34
2017-10-30T11:55:13.206Z,17.01
2017-10-30T11:56:13.945Z,17.02
2017-10-30T11:57:14.674Z,16.76
2017-10-30T11:58:15.404Z,16.79
2017-10-30T11:59:16.140Z,16.68
2017-10-30T12:00:16.868Z,16.42
2017-10-30T12:01:17.606Z,15.77
2017-10-30T12:02:18.330Z,15.58
2017-10-30T12:03:19.052Z,15.27
2017-10-30T12:04:19.773Z,15.03
2017-10-30T12:05:20.494Z,14.60
2017-10-30T12:06:21.216Z,14.07
2017-10-30T12:07:21.937Z,14.03
2017-10-30T12:08:22.669Z,14.03
2017-10-30T12:09:23.395Z,13.99
2017-10-30T12:10:24.115Z,14.07
2017-10-30T12:11:24.838Z,14.00
2017-10-30T12:12:25.561Z,14.23
2017-10-30T12:13:26.281Z,14.33
2017-10-30T12:14:27.004Z,14.51
2017-10-30T12:15:27.728Z,15.14
2017-10-30T12:16:28.466Z,15.68
2017-10-30T12:17:29.190Z,16.32
2017-10-30T12:18:29.915Z,16.71
2017-10-30T12:19:30.643Z,16.74
2017-10-30T12:20:31.368Z,17.02
2017-10-30T12:21:32.093Z,17.20
2017-10-30T12:22:32.821Z,17.79
2017-10-30T12:23:33.559Z,17.67
2017-10-30T12:24:34.287Z,17.98
2017-10-30T12:25:35.014Z,18.23
2017-10-30T12:26:35.742Z,18.40
2017-10-30T12:27:36.474Z,17.79
2017-10-30T12:28:37.197Z,18.18
2017-10-30T12:29:37.922Z,18.38
2017-10-30T12:30:38.655Z,18.20
2017-10-30T12:31:39.380Z,18.49
2017-10-30T12:32:40.108Z,18.75
2017-10-30T12:33:40.852Z,19.18
2017-10-30T12:34:41.592Z,19.41
2017-10-30T12:35:42.324Z,19.39
2017-10-30T12:36:43.050Z,19.14
2017-10-30T12:37:43.783Z,19.37
2017-10-30T12:38:44.519Z,20.02
2017-10-30T12:39:45.244Z,19.99
2017-10-30T12:40:45.978Z,20.65
2017-10-30T12:41:46.709Z,21.15
2017-10-30T12:42:47.442Z,21.43
2017-10-30T12:43:48.173Z,21.35
2017-10-30T12:44:48.910Z,21.30
2017-10-30T12:45:49.637Z,21.02
2017-10-30T12:46:50.371Z,21.06
2017-10-30T12:47:51.102Z,20.81
2017-10-30T12:48:51.833Z,20.39
2017-10-30T12:49:52.567Z,20.26
2017-10-30T12:50:53.301Z,20.32
2017-10-30T12:51:54.029Z,20.04
2017-10-30T12:52:54.771Z,19.48
2017-10-30T12:53:55.503Z,19.56
2017-10-30T12:54:56.234Z,19.64
2017-10-30T12:55:56.967Z,20.03
2017-10-30T12:56:57.698Z,20.70
2017-10-30T12:57:58.443Z,20.72
2017-10-30T12:58:59.175Z,21.21
2017-10-30T12:59:59.906Z,21.02
2017-10-30T13:01:00.633Z,20.62
2017-10-30T13:02:01.363Z,20.43
2017-10-30T13:03:02.095Z,20.51
2017-10-30T13:04:02.836Z,21.06
2017-10-30T13:05:03.553Z,21.18
2017-10-30T13:06:04.297Z,21.05
2017-10-30T13:07:05.028Z,20.07
2017-10-30T13:08:05.757Z,19.16
2017-10-30T13:09:06.488Z,19.40
2017-10-30T13:10:07.233Z,19.22
2017-10-30T13:11:07.961Z,18.95
2017-10-30T13:12:08.689Z,19.07
2017-10-30T13:13:09.433Z,19.16
2017-10-30T13:14:10.166Z,18.88
2017-10-30T13:15:10.904Z,18.78
2017-10-30T13:16:11.627Z,18.78
2017-10-30T13:17:12.356Z,19.07
2017-10-30T13:18:13.085Z,19.07
2017-10-30T13:19:13.825Z,18.56